Rechercher aéroport 
image banner adimage banner adimage banner ad
image banner ad

SVDZ - Centro Miranda

Situé à Maracaibo, Venezuela

ICAO - SVDZ, IATA -

Données fournies par Airmate  

Information générale

Coordonnées: N10°38'55" W71°37'30"
Élévation : 146 feet MSL.
 
Voir autres Aéroports à Apure

Données opérationnelles

Special qualification required
Heure actuelle UTC:
Heure actuelle locale:
Météo à : SVMC - Maracaibo / La Chinita Intl ( 15 km )
METAR: SVMC 071802Z AUTO NIL
TAF: TAF SVMC 071600Z 0718/0818 14006KT 9999 SCT016 TX32/0718Z TN25/0717Z BECMG 0718/0722 17005KT 9000 -DZ BKN016
Voir NOTAMs / SUP AIP / TFR affectant cet aéroport [VIEW]
Fréquences de communication: [VIEW]

Pistes:

Coordonnées de l'aéroport

Adresse: Maracaibo Venezuela

Vue satellite de SVDZ